createdAt,value
2023-04-22T13:30:37.252Z,65.70
2023-04-22T13:33:22.616Z,65.20
2023-04-22T13:36:09.235Z,68.20
2023-04-22T13:38:54.812Z,67.20
2023-04-22T13:41:40.584Z,66.50
2023-04-22T13:44:26.202Z,65.10
2023-04-22T13:47:11.714Z,64.60
2023-04-22T13:49:58.063Z,62.90
2023-04-22T13:52:43.985Z,65.30
2023-04-22T13:55:29.453Z,65.20
2023-04-22T13:58:15.077Z,65.10
2023-04-22T14:01:00.618Z,64.60
2023-04-22T14:03:47.006Z,63.00
2023-04-22T14:06:33.151Z,61.10
2023-04-22T14:09:18.549Z,62.70
2023-04-22T14:12:05.513Z,63.00
2023-04-22T14:14:51.055Z,63.50
2023-04-22T14:17:36.890Z,61.90
2023-04-22T14:20:25.131Z,63.50
2023-04-22T14:23:11.608Z,63.10
2023-04-22T14:25:56.805Z,61.40
2023-04-22T14:28:42.520Z,58.70
2023-04-22T14:31:27.873Z,59.50
2023-04-22T14:34:13.314Z,60.90
2023-04-22T14:36:59.454Z,61.40
2023-04-22T14:39:44.764Z,59.70
2023-04-22T14:42:30.618Z,59.20
2023-04-22T14:45:16.218Z,62.00
2023-04-22T14:48:01.820Z,62.70
2023-04-22T14:50:47.208Z,60.40
2023-04-22T14:53:33.319Z,64.00
2023-04-22T14:56:19.144Z,64.20
2023-04-22T14:59:05.129Z,64.00
2023-04-22T15:01:50.536Z,64.70
2023-04-22T15:04:36.105Z,63.80
2023-04-22T15:07:21.799Z,63.20
2023-04-22T15:10:07.751Z,63.10
2023-04-22T15:12:53.849Z,62.30
2023-04-22T15:15:39.404Z,59.70
2023-04-22T15:18:26.268Z,58.00
2023-04-22T15:21:11.544Z,61.90
2023-04-22T15:23:57.202Z,60.80
2023-04-22T15:26:42.720Z,60.40
2023-04-22T15:29:28.582Z,58.60
2023-04-22T15:32:14.085Z,60.30
2023-04-22T15:34:59.361Z,59.20
2023-04-22T15:37:45.757Z,58.70
2023-04-22T15:40:31.532Z,55.20
2023-04-22T15:43:16.889Z,54.90
2023-04-22T15:46:02.537Z,50.40
2023-04-22T15:48:48.809Z,52.90
2023-04-22T15:51:34.207Z,52.30
2023-04-22T15:54:19.682Z,51.50
2023-04-22T15:57:05.317Z,52.40
2023-04-22T15:59:59.335Z,48.70
2023-04-22T16:02:55.691Z,50.20
2023-04-22T16:05:41.446Z,52.50
2023-04-22T16:08:27.303Z,54.00
2023-04-22T16:11:14.682Z,54.00
2023-04-22T16:13:59.888Z,55.20
2023-04-22T16:16:45.904Z,54.50
2023-04-22T16:19:31.098Z,54.00
2023-04-22T16:22:16.404Z,54.10
2023-04-22T16:25:02.044Z,54.70
2023-04-22T16:27:47.980Z,54.90
2023-04-22T16:30:33.642Z,52.60
2023-04-22T16:33:19.025Z,52.70
2023-04-22T16:36:05.515Z,54.20
2023-04-22T16:38:51.057Z,53.50
2023-04-22T16:41:36.615Z,54.90
2023-04-22T16:44:22.277Z,54.10
2023-04-22T16:47:08.022Z,54.70
2023-04-22T16:49:53.620Z,55.00
2023-04-22T16:52:39.914Z,54.50
2023-04-22T16:55:25.152Z,54.90
2023-04-22T16:58:10.531Z,55.50
2023-04-22T17:00:58.049Z,54.00
2023-04-22T17:03:43.599Z,53.50
2023-04-22T17:06:29.384Z,54.00
2023-04-22T17:09:14.773Z,53.60
2023-04-22T17:12:01.596Z,53.80
2023-04-22T17:14:47.300Z,54.40
2023-04-22T17:17:32.767Z,53.20
2023-04-22T17:20:18.316Z,53.90
2023-04-22T17:23:04.236Z,52.80
2023-04-22T17:25:49.524Z,54.20
2023-04-22T17:28:35.133Z,55.70
2023-04-22T17:31:20.815Z,54.90
2023-04-22T17:34:06.257Z,54.60
2023-04-22T17:36:51.841Z,53.10
2023-04-22T17:39:39.880Z,53.30
2023-04-22T17:42:32.213Z,54.00
2023-04-22T17:45:24.808Z,56.20
2023-04-22T17:48:10.364Z,57.00
2023-04-22T17:50:55.888Z,57.70
2023-04-22T17:53:42.068Z,57.00
2023-04-22T17:56:27.845Z,58.40
2023-04-22T17:59:12.995Z,58.30
2023-04-22T18:02:00.254Z,58.20
2023-04-22T18:04:47.340Z,59.90
2023-04-22T18:07:32.630Z,60.30
2023-04-22T18:10:18.417Z,60.30
2023-04-22T18:13:03.788Z,61.40
2023-04-22T18:15:49.391Z,61.40
2023-04-22T18:18:35.501Z,61.90
2023-04-22T18:21:21.182Z,61.70
2023-04-22T18:24:06.915Z,61.40
2023-04-22T18:26:52.781Z,62.40
2023-04-22T18:29:38.647Z,63.30
2023-04-22T18:32:24.537Z,64.00
2023-04-22T18:35:10.764Z,64.50
2023-04-22T18:37:56.196Z,63.80
2023-04-22T18:40:42.150Z,63.50
2023-04-22T18:43:27.659Z,65.40
2023-04-22T18:46:13.247Z,66.30
2023-04-22T18:48:58.743Z,66.20
2023-04-22T18:51:44.195Z,67.20
2023-04-22T18:54:30.691Z,67.60
2023-04-22T18:57:16.407Z,68.20
2023-04-22T19:00:02.650Z,67.90
2023-04-22T19:02:48.557Z,68.40
2023-04-22T19:05:33.930Z,68.00
2023-04-22T19:08:19.508Z,68.60
2023-04-22T19:11:05.632Z,69.50
2023-04-22T19:13:53.519Z,70.20
2023-04-22T19:16:39.133Z,70.20
2023-04-22T19:19:25.794Z,70.50
2023-04-22T19:22:12.457Z,70.20
2023-04-22T19:24:58.773Z,70.50
2023-04-22T19:27:44.047Z,70.80
2023-04-22T19:30:30.191Z,71.70
2023-04-22T19:33:15.878Z,71.30
2023-04-22T19:36:01.738Z,70.80
2023-04-22T19:38:47.422Z,71.00
2023-04-22T19:41:34.162Z,70.80
2023-04-22T19:44:19.422Z,70.70
2023-04-22T19:47:05.082Z,72.10
2023-04-22T19:49:50.603Z,73.50
2023-04-22T19:52:36.457Z,73.80
2023-04-22T19:55:22.828Z,74.30
2023-04-22T19:58:09.348Z,75.70
2023-04-22T20:00:55.276Z,77.00
2023-04-22T20:03:41.374Z,78.70
2023-04-22T20:06:28.136Z,82.50
2023-04-22T20:09:13.848Z,84.50
2023-04-22T20:11:59.645Z,84.90
2023-04-22T20:14:45.409Z,86.00
2023-04-22T20:17:35.629Z,86.50
2023-04-22T20:20:21.638Z,85.60
2023-04-22T20:23:12.823Z,84.50
2023-04-22T20:25:59.524Z,84.20
2023-04-22T20:28:51.907Z,83.50
2023-04-22T20:31:37.345Z,83.50
2023-04-22T20:34:22.757Z,82.70
2023-04-22T20:37:10.420Z,81.70
2023-04-22T20:39:56.571Z,82.10
2023-04-22T20:42:42.219Z,81.60
2023-04-22T20:45:28.695Z,81.70
2023-04-22T20:48:14.113Z,82.30
2023-04-22T20:50:59.831Z,81.40
2023-04-22T20:53:45.591Z,81.70
2023-04-22T20:56:30.893Z,82.20
2023-04-22T20:59:16.707Z,81.90
2023-04-22T21:02:04.370Z,83.00
2023-04-22T21:04:50.530Z,83.70
2023-04-22T21:07:39.441Z,83.70
2023-04-22T21:10:25.255Z,84.20
2023-04-22T21:13:11.085Z,83.80
2023-04-22T21:16:03.511Z,83.50
2023-04-22T21:18:49.600Z,83.60
2023-04-22T21:21:37.380Z,84.50
2023-04-22T21:24:22.876Z,84.60
2023-04-22T21:27:08.946Z,85.80
2023-04-22T21:29:54.819Z,86.80
2023-04-22T21:32:41.270Z,87.70
2023-04-22T21:35:27.046Z,86.80
2023-04-22T21:38:12.927Z,86.40
2023-04-22T21:40:58.423Z,87.00
2023-04-22T21:43:43.595Z,85.80
2023-04-22T21:46:29.259Z,85.60
2023-04-22T21:49:14.445Z,85.10
2023-04-22T21:51:59.945Z,86.20
2023-04-22T21:54:45.321Z,84.30
2023-04-22T21:57:30.707Z,84.20
2023-04-22T22:00:18.746Z,83.60
2023-04-22T22:03:04.668Z,84.90
2023-04-22T22:05:50.023Z,85.00
2023-04-22T22:08:35.536Z,84.90
2023-04-22T22:11:30.388Z,85.50
2023-04-22T22:14:16.576Z,85.50
2023-04-22T22:17:02.104Z,85.00
2023-04-22T22:19:48.724Z,86.10
2023-04-22T22:22:34.289Z,87.50
2023-04-22T22:25:19.569Z,87.20
2023-04-22T22:28:05.232Z,88.10
2023-04-22T22:30:50.411Z,88.00
2023-04-22T22:33:36.021Z,88.70
2023-04-22T22:36:21.796Z,88.00
2023-04-22T22:39:06.963Z,89.50
2023-04-22T22:41:52.453Z,88.80
2023-04-22T22:44:37.687Z,88.40
2023-04-22T22:47:24.981Z,90.00
2023-04-22T22:50:11.518Z,90.60
2023-04-22T22:52:56.924Z,89.60
2023-04-22T22:55:42.530Z,92.10
2023-04-22T22:58:27.812Z,92.60
2023-04-22T23:01:13.999Z,92.50
2023-04-22T23:03:59.816Z,92.60
2023-04-22T23:06:45.648Z,92.20
2023-04-22T23:09:30.950Z,91.50
2023-04-22T23:12:16.530Z,90.70
2023-04-22T23:15:01.891Z,93.40
2023-04-22T23:17:47.362Z,93.50
2023-04-22T23:20:33.156Z,94.90
2023-04-22T23:23:19.288Z,94.20
2023-04-22T23:26:04.794Z,94.10
2023-04-22T23:28:50.243Z,94.20
2023-04-22T23:31:37.142Z,94.00
2023-04-22T23:34:26.143Z,94.50
2023-04-22T23:37:14.488Z,93.60
2023-04-22T23:39:59.823Z,93.00
2023-04-22T23:42:46.309Z,95.30
2023-04-22T23:45:31.637Z,94.00
2023-04-22T23:48:17.197Z,95.00
2023-04-22T23:51:02.615Z,96.80
2023-04-22T23:53:48.156Z,94.80
2023-04-22T23:56:33.810Z,95.30
2023-04-22T23:59:19.474Z,94.30
